LEST/SCQ METAR and TAF weather

Enter ICAO airport designator
Station Type Date Time Source
LEST METAR 2022/11/30 23:00 UTC NOAA

LEST 302300Z VRB01KT CAVOK 07/06 Q1016 NOSIG


Station Type Date Time Source
LEST Decoded METAR 2022/11/30 23:00 UTC NOAA

Santiago / Labacolla, Spain (LEST) 42-54N 008-26W 367M
Nov 30, 2022 - 06:00 PM EST / 2022.11.30 2300 UTC
Wind: Variable at 1 MPH (1 KT):0
Visibility: greater than 7 mile(s):0
Temperature: 44 F (7 C)
Dew Point: 42 F (6 C)
Relative Humidity: 93%
Pressure (altimeter): 30.00 in. Hg (1016 hPa)
ob: LEST 302300Z VRB01KT CAVOK 07/06 Q1016 NOSIG
cycle: 23

Station Type Date Time Source
LEST TAF 2022/11/30 18:27 UTC NOAA

TAF LEST 301700Z 3018/0118 06009KT 9999 FEW010 BKN020 TX13/0115Z TN03/0107Z PROB40
TEMPO 3018/3020 13010KT PROB40
TEMPO 3022/0110 3000 BR BKN010

Example: see airport list